sensor_id;sensor_type;location;lat;lon;timestamp;P1;durP1;ratioP1;P2;durP2;ratioP2
74959;SDS011;63518;49.572;1.106;2023-04-28T00:00:51;6.25;;;1.98;;
74959;SDS011;63518;49.572;1.106;2023-04-28T00:03:18;4.38;;;1.60;;
74959;SDS011;63518;49.572;1.106;2023-04-28T00:05:45;5.07;;;2.13;;
74959;SDS011;63518;49.572;1.106;2023-04-28T00:08:13;4.70;;;1.55;;
74959;SDS011;63518;49.572;1.106;2023-04-28T00:10:40;5.88;;;1.55;;
74959;SDS011;63518;49.572;1.106;2023-04-28T00:13:07;4.68;;;1.55;;
74959;SDS011;63518;49.572;1.106;2023-04-28T00:15:34;5.32;;;1.83;;
74959;SDS011;63518;49.572;1.106;2023-04-28T00:18:01;5.03;;;1.98;;
74959;SDS011;63518;49.572;1.106;2023-04-28T00:20:28;5.35;;;1.77;;
74959;SDS011;63518;49.572;1.106;2023-04-28T00:22:58;4.80;;;1.70;;
74959;SDS011;63518;49.572;1.106;2023-04-28T00:25:26;5.00;;;1.75;;
74959;SDS011;63518;49.572;1.106;2023-04-28T00:27:56;5.43;;;1.83;;
74959;SDS011;63518;49.572;1.106;2023-04-28T00:30:26;5.40;;;1.92;;
74959;SDS011;63518;49.572;1.106;2023-04-28T00:32:55;6.15;;;1.75;;
74959;SDS011;63518;49.572;1.106;2023-04-28T00:35:22;4.20;;;1.23;;
74959;SDS011;63518;49.572;1.106;2023-04-28T00:37:49;4.97;;;1.70;;
74959;SDS011;63518;49.572;1.106;2023-04-28T00:40:16;5.47;;;1.60;;
74959;SDS011;63518;49.572;1.106;2023-04-28T00:42:46;4.55;;;1.40;;
74959;SDS011;63518;49.572;1.106;2023-04-28T00:45:13;4.00;;;1.30;;
74959;SDS011;63518;49.572;1.106;2023-04-28T00:47:43;5.35;;;1.48;;
74959;SDS011;63518;49.572;1.106;2023-04-28T00:50:12;5.20;;;1.83;;
74959;SDS011;63518;49.572;1.106;2023-04-28T00:52:39;4.50;;;1.42;;
74959;SDS011;63518;49.572;1.106;2023-04-28T00:55:11;7.38;;;1.75;;
74959;SDS011;63518;49.572;1.106;2023-04-28T00:57:41;4.75;;;1.55;;
74959;SDS011;63518;49.572;1.106;2023-04-28T01:00:09;4.43;;;1.58;;
74959;SDS011;63518;49.572;1.106;2023-04-28T01:02:40;5.47;;;1.50;;
74959;SDS011;63518;49.572;1.106;2023-04-28T01:05:07;5.38;;;1.83;;
74959;SDS011;63518;49.572;1.106;2023-04-28T01:07:35;4.70;;;1.45;;
74959;SDS011;63518;49.572;1.106;2023-04-28T01:10:03;2.75;;;0.80;;
74959;SDS011;63518;49.572;1.106;2023-04-28T01:12:30;5.38;;;1.50;;
74959;SDS011;63518;49.572;1.106;2023-04-28T01:14:59;5.22;;;1.70;;
74959;SDS011;63518;49.572;1.106;2023-04-28T01:17:27;4.97;;;1.60;;
74959;SDS011;63518;49.572;1.106;2023-04-28T01:19:53;3.70;;;1.13;;
74959;SDS011;63518;49.572;1.106;2023-04-28T01:22:21;4.93;;;1.23;;
74959;SDS011;63518;49.572;1.106;2023-04-28T01:24:48;4.63;;;1.70;;
74959;SDS011;63518;49.572;1.106;2023-04-28T01:27:15;3.85;;;0.82;;
74959;SDS011;63518;49.572;1.106;2023-04-28T01:29:42;4.82;;;1.27;;
74959;SDS011;63518;49.572;1.106;2023-04-28T01:32:09;3.60;;;1.15;;
74959;SDS011;63518;49.572;1.106;2023-04-28T01:34:36;7.22;;;1.38;;
74959;SDS011;63518;49.572;1.106;2023-04-28T01:37:03;4.40;;;1.42;;
74959;SDS011;63518;49.572;1.106;2023-04-28T01:39:30;4.38;;;1.73;;
74959;SDS011;63518;49.572;1.106;2023-04-28T01:41:57;2.25;;;0.85;;
74959;SDS011;63518;49.572;1.106;2023-04-28T01:44:24;4.13;;;1.25;;
74959;SDS011;63518;49.572;1.106;2023-04-28T01:46:51;3.05;;;0.90;;
74959;SDS011;63518;49.572;1.106;2023-04-28T01:49:18;3.95;;;1.17;;
74959;SDS011;63518;49.572;1.106;2023-04-28T01:51:45;2.60;;;0.85;;
74959;SDS011;63518;49.572;1.106;2023-04-28T01:54:12;3.88;;;1.20;;
74959;SDS011;63518;49.572;1.106;2023-04-28T01:56:40;2.15;;;0.63;;
74959;SDS011;63518;49.572;1.106;2023-04-28T01:59:07;3.17;;;1.00;;
74959;SDS011;63518;49.572;1.106;2023-04-28T02:01:34;5.47;;;1.48;;
74959;SDS011;63518;49.572;1.106;2023-04-28T02:04:02;3.60;;;1.20;;
74959;SDS011;63518;49.572;1.106;2023-04-28T02:06:29;3.63;;;0.98;;
74959;SDS011;63518;49.572;1.106;2023-04-28T02:08:55;2.88;;;0.80;;
74959;SDS011;63518;49.572;1.106;2023-04-28T02:11:22;3.10;;;0.93;;
74959;SDS011;63518;49.572;1.106;2023-04-28T02:13:49;2.88;;;0.77;;
74959;SDS011;63518;49.572;1.106;2023-04-28T02:16:16;4.13;;;1.00;;
74959;SDS011;63518;49.572;1.106;2023-04-28T02:18:43;3.72;;;1.02;;
74959;SDS011;63518;49.572;1.106;2023-04-28T02:21:10;2.38;;;0.60;;
74959;SDS011;63518;49.572;1.106;2023-04-28T02:23:38;3.67;;;1.02;;
74959;SDS011;63518;49.572;1.106;2023-04-28T02:26:06;3.58;;;0.95;;
74959;SDS011;63518;49.572;1.106;2023-04-28T02:28:33;2.00;;;0.57;;
74959;SDS011;63518;49.572;1.106;2023-04-28T02:31:06;2.95;;;0.88;;
74959;SDS011;63518;49.572;1.106;2023-04-28T02:33:34;3.58;;;1.02;;
74959;SDS011;63518;49.572;1.106;2023-04-28T02:36:02;2.53;;;0.70;;
74959;SDS011;63518;49.572;1.106;2023-04-28T02:38:30;3.25;;;0.98;;
74959;SDS011;63518;49.572;1.106;2023-04-28T02:40:58;3.17;;;0.90;;
74959;SDS011;63518;49.572;1.106;2023-04-28T02:43:29;2.78;;;0.70;;
74959;SDS011;63518;49.572;1.106;2023-04-28T02:45:57;2.22;;;0.60;;
74959;SDS011;63518;49.572;1.106;2023-04-28T02:48:24;2.25;;;0.85;;
74959;SDS011;63518;49.572;1.106;2023-04-28T02:50:57;4.32;;;0.82;;
74959;SDS011;63518;49.572;1.106;2023-04-28T02:53:24;2.50;;;0.82;;
74959;SDS011;63518;49.572;1.106;2023-04-28T02:55:51;1.05;;;0.40;;
74959;SDS011;63518;49.572;1.106;2023-04-28T02:58:18;2.03;;;0.60;;
74959;SDS011;63518;49.572;1.106;2023-04-28T03:00:45;2.30;;;0.45;;
74959;SDS011;63518;49.572;1.106;2023-04-28T03:03:12;3.15;;;0.90;;
74959;SDS011;63518;49.572;1.106;2023-04-28T03:05:40;1.88;;;0.50;;
74959;SDS011;63518;49.572;1.106;2023-04-28T03:10:37;2.25;;;0.40;;
74959;SDS011;63518;49.572;1.106;2023-04-28T03:13:04;1.33;;;0.45;;
74959;SDS011;63518;49.572;1.106;2023-04-28T03:15:31;2.00;;;0.43;;
74959;SDS011;63518;49.572;1.106;2023-04-28T03:17:58;1.65;;;0.40;;
74959;SDS011;63518;49.572;1.106;2023-04-28T03:20:26;2.30;;;0.60;;
74959;SDS011;63518;49.572;1.106;2023-04-28T03:22:53;2.13;;;0.60;;
74959;SDS011;63518;49.572;1.106;2023-04-28T03:25:20;2.50;;;0.60;;
74959;SDS011;63518;49.572;1.106;2023-04-28T03:27:47;2.60;;;0.70;;
74959;SDS011;63518;49.572;1.106;2023-04-28T03:30:14;1.08;;;0.32;;
74959;SDS011;63518;49.572;1.106;2023-04-28T03:32:41;2.08;;;0.60;;
74959;SDS011;63518;49.572;1.106;2023-04-28T03:35:08;3.67;;;0.70;;
74959;SDS011;63518;49.572;1.106;2023-04-28T03:37:35;1.55;;;0.32;;
74959;SDS011;63518;49.572;1.106;2023-04-28T03:40:05;2.53;;;0.52;;
74959;SDS011;63518;49.572;1.106;2023-04-28T03:42:33;2.08;;;0.38;;
74959;SDS011;63518;49.572;1.106;2023-04-28T03:45:00;2.40;;;0.60;;
74959;SDS011;63518;49.572;1.106;2023-04-28T03:47:27;1.55;;;0.60;;
74959;SDS011;63518;49.572;1.106;2023-04-28T03:49:55;2.60;;;0.70;;
74959;SDS011;63518;49.572;1.106;2023-04-28T03:52:24;4.80;;;0.98;;
74959;SDS011;63518;49.572;1.106;2023-04-28T03:54:51;4.13;;;1.35;;
74959;SDS011;63518;49.572;1.106;2023-04-28T03:57:18;5.38;;;1.10;;
74959;SDS011;63518;49.572;1.106;2023-04-28T03:59:45;1.65;;;0.45;;
74959;SDS011;63518;49.572;1.106;2023-04-28T04:02:12;1.48;;;0.43;;
74959;SDS011;63518;49.572;1.106;2023-04-28T04:04:39;3.22;;;1.02;;
74959;SDS011;63518;49.572;1.106;2023-04-28T04:07:06;2.63;;;0.73;;
74959;SDS011;63518;49.572;1.106;2023-04-28T04:09:33;3.85;;;1.05;;
74959;SDS011;63518;49.572;1.106;2023-04-28T04:12:00;3.97;;;1.15;;
74959;SDS011;63518;49.572;1.106;2023-04-28T04:14:27;3.60;;;1.10;;
74959;SDS011;63518;49.572;1.106;2023-04-28T04:16:54;3.30;;;0.90;;
74959;SDS011;63518;49.572;1.106;2023-04-28T04:19:21;4.22;;;1.23;;
74959;SDS011;63518;49.572;1.106;2023-04-28T04:21:49;3.85;;;0.95;;
74959;SDS011;63518;49.572;1.106;2023-04-28T04:24:16;3.45;;;0.90;;
74959;SDS011;63518;49.572;1.106;2023-04-28T04:26:44;3.55;;;0.80;;
74959;SDS011;63518;49.572;1.106;2023-04-28T04:29:11;2.78;;;0.85;;
74959;SDS011;63518;49.572;1.106;2023-04-28T04:31:38;3.38;;;0.93;;
74959;SDS011;63518;49.572;1.106;2023-04-28T04:34:05;3.88;;;1.20;;
74959;SDS011;63518;49.572;1.106;2023-04-28T04:36:32;2.45;;;0.60;;
74959;SDS011;63518;49.572;1.106;2023-04-28T04:38:59;3.10;;;0.90;;
74959;SDS011;63518;49.572;1.106;2023-04-28T04:41:26;3.88;;;0.93;;
74959;SDS011;63518;49.572;1.106;2023-04-28T04:43:52;1.58;;;0.45;;
74959;SDS011;63518;49.572;1.106;2023-04-28T04:46:19;3.42;;;1.02;;
74959;SDS011;63518;49.572;1.106;2023-04-28T04:48:47;2.13;;;0.40;;
74959;SDS011;63518;49.572;1.106;2023-04-28T04:51:14;3.28;;;0.82;;
74959;SDS011;63518;49.572;1.106;2023-04-28T04:53:41;3.03;;;0.80;;
74959;SDS011;63518;49.572;1.106;2023-04-28T04:56:08;3.55;;;0.85;;
74959;SDS011;63518;49.572;1.106;2023-04-28T04:58:35;3.03;;;0.93;;
74959;SDS011;63518;49.572;1.106;2023-04-28T05:01:02;3.90;;;1.25;;
74959;SDS011;63518;49.572;1.106;2023-04-28T05:03:29;1.60;;;0.52;;
74959;SDS011;63518;49.572;1.106;2023-04-28T05:05:56;5.07;;;0.80;;
74959;SDS011;63518;49.572;1.106;2023-04-28T05:08:23;3.58;;;1.00;;
74959;SDS011;63518;49.572;1.106;2023-04-28T05:10:50;3.03;;;0.80;;
74959;SDS011;63518;49.572;1.106;2023-04-28T05:13:17;3.47;;;0.93;;
74959;SDS011;63518;49.572;1.106;2023-04-28T05:15:44;2.65;;;0.75;;
74959;SDS011;63518;49.572;1.106;2023-04-28T05:18:11;3.85;;;1.02;;
74959;SDS011;63518;49.572;1.106;2023-04-28T05:20:39;3.15;;;0.85;;
74959;SDS011;63518;49.572;1.106;2023-04-28T05:23:06;3.20;;;0.80;;
74959;SDS011;63518;49.572;1.106;2023-04-28T05:25:33;0.45;;;0.17;;
74959;SDS011;63518;49.572;1.106;2023-04-28T05:28:00;3.70;;;0.80;;
74959;SDS011;63518;49.572;1.106;2023-04-28T05:30:33;3.00;;;0.85;;
74959;SDS011;63518;49.572;1.106;2023-04-28T05:33:02;3.15;;;0.80;;
74959;SDS011;63518;49.572;1.106;2023-04-28T05:35:32;3.00;;;0.73;;
74959;SDS011;63518;49.572;1.106;2023-04-28T05:37:59;3.58;;;0.90;;
74959;SDS011;63518;49.572;1.106;2023-04-28T05:40:26;3.72;;;0.90;;
74959;SDS011;63518;49.572;1.106;2023-04-28T05:42:56;2.72;;;0.80;;
74959;SDS011;63518;49.572;1.106;2023-04-28T05:45:23;3.03;;;0.88;;
74959;SDS011;63518;49.572;1.106;2023-04-28T05:47:50;2.95;;;0.73;;
74959;SDS011;63518;49.572;1.106;2023-04-28T05:50:22;2.33;;;0.63;;
74959;SDS011;63518;49.572;1.106;2023-04-28T05:52:50;2.13;;;0.43;;
74959;SDS011;63518;49.572;1.106;2023-04-28T05:55:17;3.60;;;0.93;;
74959;SDS011;63518;49.572;1.106;2023-04-28T05:57:46;3.05;;;0.80;;
74959;SDS011;63518;49.572;1.106;2023-04-28T06:00:22;2.58;;;0.63;;
74959;SDS011;63518;49.572;1.106;2023-04-28T06:02:52;2.95;;;0.82;;
74959;SDS011;63518;49.572;1.106;2023-04-28T06:07:49;2.83;;;0.82;;
74959;SDS011;63518;49.572;1.106;2023-04-28T06:10:22;3.35;;;0.88;;
74959;SDS011;63518;49.572;1.106;2023-04-28T06:15:18;4.22;;;1.25;;
74959;SDS011;63518;49.572;1.106;2023-04-28T06:17:48;4.03;;;1.17;;
74959;SDS011;63518;49.572;1.106;2023-04-28T06:20:15;3.90;;;1.40;;
74959;SDS011;63518;49.572;1.106;2023-04-28T06:22:51;4.82;;;1.20;;
74959;SDS011;63518;49.572;1.106;2023-04-28T06:27:46;3.95;;;1.20;;
74959;SDS011;63518;49.572;1.106;2023-04-28T06:30:16;4.30;;;1.45;;
74959;SDS011;63518;49.572;1.106;2023-04-28T06:32:45;4.20;;;1.55;;
74959;SDS011;63518;49.572;1.106;2023-04-28T06:35:12;4.25;;;1.20;;
74959;SDS011;63518;49.572;1.106;2023-04-28T06:37:39;4.05;;;1.40;;
74959;SDS011;63518;49.572;1.106;2023-04-28T06:40:07;6.07;;;2.13;;
74959;SDS011;63518;49.572;1.106;2023-04-28T06:42:35;6.72;;;1.58;;
74959;SDS011;63518;49.572;1.106;2023-04-28T06:45:02;6.10;;;2.63;;
74959;SDS011;63518;49.572;1.106;2023-04-28T06:47:29;6.03;;;2.40;;
74959;SDS011;63518;49.572;1.106;2023-04-28T06:49:56;5.35;;;2.03;;
74959;SDS011;63518;49.572;1.106;2023-04-28T06:52:23;6.43;;;2.40;;
74959;SDS011;63518;49.572;1.106;2023-04-28T06:55:02;5.75;;;2.60;;
74959;SDS011;63518;49.572;1.106;2023-04-28T06:57:29;5.03;;;1.65;;
74959;SDS011;63518;49.572;1.106;2023-04-28T06:59:56;8.80;;;3.08;;
74959;SDS011;63518;49.572;1.106;2023-04-28T07:02:23;5.75;;;2.38;;
74959;SDS011;63518;49.572;1.106;2023-04-28T07:04:50;7.57;;;2.92;;
74959;SDS011;63518;49.572;1.106;2023-04-28T07:07:17;7.45;;;2.38;;
74959;SDS011;63518;49.572;1.106;2023-04-28T07:09:44;7.63;;;2.42;;
74959;SDS011;63518;49.572;1.106;2023-04-28T07:12:13;5.53;;;2.10;;
74959;SDS011;63518;49.572;1.106;2023-04-28T07:14:40;6.95;;;2.33;;
74959;SDS011;63518;49.572;1.106;2023-04-28T07:17:07;5.97;;;2.22;;
74959;SDS011;63518;49.572;1.106;2023-04-28T07:19:34;2.85;;;1.02;;
74959;SDS011;63518;49.572;1.106;2023-04-28T07:22:01;5.43;;;2.00;;
74959;SDS011;63518;49.572;1.106;2023-04-28T07:24:28;6.93;;;2.33;;
74959;SDS011;63518;49.572;1.106;2023-04-28T07:26:56;5.63;;;2.35;;
74959;SDS011;63518;49.572;1.106;2023-04-28T07:29:23;6.55;;;2.88;;
74959;SDS011;63518;49.572;1.106;2023-04-28T07:31:50;7.57;;;3.55;;
74959;SDS011;63518;49.572;1.106;2023-04-28T07:34:17;6.22;;;2.80;;
74959;SDS011;63518;49.572;1.106;2023-04-28T07:36:44;7.35;;;3.53;;
74959;SDS011;63518;49.572;1.106;2023-04-28T07:39:11;5.68;;;2.15;;
74959;SDS011;63518;49.572;1.106;2023-04-28T07:41:38;6.30;;;2.78;;
74959;SDS011;63518;49.572;1.106;2023-04-28T07:44:05;4.95;;;2.08;;
74959;SDS011;63518;49.572;1.106;2023-04-28T07:46:33;4.80;;;2.10;;
74959;SDS011;63518;49.572;1.106;2023-04-28T07:49:01;5.75;;;2.03;;
74959;SDS011;63518;49.572;1.106;2023-04-28T07:51:28;7.22;;;3.13;;
74959;SDS011;63518;49.572;1.106;2023-04-28T07:53:55;5.45;;;2.10;;
74959;SDS011;63518;49.572;1.106;2023-04-28T07:56:23;6.65;;;2.53;;
74959;SDS011;63518;49.572;1.106;2023-04-28T07:58:50;5.65;;;2.03;;
74959;SDS011;63518;49.572;1.106;2023-04-28T08:01:16;7.68;;;3.45;;
74959;SDS011;63518;49.572;1.106;2023-04-28T08:03:43;7.15;;;3.40;;
74959;SDS011;63518;49.572;1.106;2023-04-28T08:06:11;6.95;;;2.78;;
74959;SDS011;63518;49.572;1.106;2023-04-28T08:08:38;6.68;;;2.90;;
74959;SDS011;63518;49.572;1.106;2023-04-28T08:11:05;6.03;;;2.08;;
74959;SDS011;63518;49.572;1.106;2023-04-28T08:13:33;5.72;;;2.30;;
74959;SDS011;63518;49.572;1.106;2023-04-28T08:16:00;6.22;;;2.53;;
74959;SDS011;63518;49.572;1.106;2023-04-28T08:18:27;8.07;;;2.42;;
74959;SDS011;63518;49.572;1.106;2023-04-28T08:20:54;5.53;;;2.03;;
74959;SDS011;63518;49.572;1.106;2023-04-28T08:23:21;5.07;;;1.90;;
74959;SDS011;63518;49.572;1.106;2023-04-28T08:25:48;5.60;;;1.38;;
74959;SDS011;63518;49.572;1.106;2023-04-28T08:28:15;5.68;;;2.53;;
74959;SDS011;63518;49.572;1.106;2023-04-28T08:30:42;6.50;;;2.38;;
74959;SDS011;63518;49.572;1.106;2023-04-28T08:33:09;6.60;;;2.03;;
74959;SDS011;63518;49.572;1.106;2023-04-28T08:35:36;5.78;;;2.22;;
74959;SDS011;63518;49.572;1.106;2023-04-28T08:38:05;5.93;;;2.25;;
74959;SDS011;63518;49.572;1.106;2023-04-28T08:40:33;6.13;;;2.15;;
74959;SDS011;63518;49.572;1.106;2023-04-28T08:42:59;6.47;;;2.63;;
74959;SDS011;63518;49.572;1.106;2023-04-28T08:45:26;6.28;;;2.05;;
74959;SDS011;63518;49.572;1.106;2023-04-28T08:47:57;6.22;;;2.60;;
74959;SDS011;63518;49.572;1.106;2023-04-28T08:50:25;7.78;;;2.90;;
74959;SDS011;63518;49.572;1.106;2023-04-28T08:52:56;8.60;;;2.60;;
74959;SDS011;63518;49.572;1.106;2023-04-28T08:55:24;8.57;;;3.17;;
74959;SDS011;63518;49.572;1.106;2023-04-28T08:57:52;7.20;;;2.50;;
74959;SDS011;63518;49.572;1.106;2023-04-28T09:00:20;8.30;;;3.28;;
74959;SDS011;63518;49.572;1.106;2023-04-28T09:02:47;10.10;;;4.10;;
74959;SDS011;63518;49.572;1.106;2023-04-28T09:05:14;7.95;;;3.70;;
74959;SDS011;63518;49.572;1.106;2023-04-28T09:07:44;10.32;;;4.18;;
74959;SDS011;63518;49.572;1.106;2023-04-28T09:10:21;10.50;;;4.85;;
74959;SDS011;63518;49.572;1.106;2023-04-28T09:12:53;11.00;;;4.35;;
74959;SDS011;63518;49.572;1.106;2023-04-28T09:15:32;13.98;;;6.43;;
74959;SDS011;63518;49.572;1.106;2023-04-28T09:18:03;11.95;;;5.47;;
74959;SDS011;63518;49.572;1.106;2023-04-28T09:20:34;8.10;;;4.15;;
74959;SDS011;63518;49.572;1.106;2023-04-28T09:25:57;12.50;;;6.22;;
74959;SDS011;63518;49.572;1.106;2023-04-28T09:28:24;10.27;;;5.10;;
74959;SDS011;63518;49.572;1.106;2023-04-28T09:30:52;10.65;;;5.35;;
74959;SDS011;63518;49.572;1.106;2023-04-28T09:33:20;9.30;;;4.80;;
74959;SDS011;63518;49.572;1.106;2023-04-28T09:35:49;11.18;;;7.30;;
74959;SDS011;63518;49.572;1.106;2023-04-28T09:38:17;9.23;;;6.25;;
74959;SDS011;63518;49.572;1.106;2023-04-28T09:40:50;10.20;;;6.57;;
74959;SDS011;63518;49.572;1.106;2023-04-28T09:43:30;10.82;;;6.35;;
74959;SDS011;63518;49.572;1.106;2023-04-28T09:45:59;8.77;;;4.90;;
74959;SDS011;63518;49.572;1.106;2023-04-28T09:48:31;9.68;;;5.63;;
74959;SDS011;63518;49.572;1.106;2023-04-28T09:51:01;10.40;;;6.30;;
74959;SDS011;63518;49.572;1.106;2023-04-28T09:53:30;9.05;;;5.72;;
74959;SDS011;63518;49.572;1.106;2023-04-28T09:55:59;9.98;;;6.18;;
74959;SDS011;63518;49.572;1.106;2023-04-28T09:58:29;9.57;;;5.95;;
74959;SDS011;63518;49.572;1.106;2023-04-28T10:00:58;10.90;;;6.90;;
74959;SDS011;63518;49.572;1.106;2023-04-28T10:03:27;10.48;;;6.85;;
74959;SDS011;63518;49.572;1.106;2023-04-28T10:05:56;10.13;;;6.65;;
74959;SDS011;63518;49.572;1.106;2023-04-28T10:08:25;9.00;;;5.70;;
74959;SDS011;63518;49.572;1.106;2023-04-28T10:10:53;9.37;;;5.30;;
74959;SDS011;63518;49.572;1.106;2023-04-28T10:13:23;9.18;;;5.85;;
74959;SDS011;63518;49.572;1.106;2023-04-28T10:15:51;8.75;;;5.10;;
74959;SDS011;63518;49.572;1.106;2023-04-28T10:18:24;9.00;;;5.70;;
74959;SDS011;63518;49.572;1.106;2023-04-28T10:20:54;9.77;;;6.05;;
74959;SDS011;63518;49.572;1.106;2023-04-28T10:27:13;10.32;;;6.85;;
74959;SDS011;63518;49.572;1.106;2023-04-28T10:29:32;9.93;;;6.80;;
74959;SDS011;63518;49.572;1.106;2023-04-28T10:32:19;9.50;;;5.60;;
74959;SDS011;63518;49.572;1.106;2023-04-28T10:34:47;9.60;;;6.20;;
74959;SDS011;63518;49.572;1.106;2023-04-28T10:37:15;10.02;;;6.90;;
74959;SDS011;63518;49.572;1.106;2023-04-28T10:48:21;12.02;;;7.05;;
74959;SDS011;63518;49.572;1.106;2023-04-28T10:56:14;11.80;;;7.43;;
74959;SDS011;63518;49.572;1.106;2023-04-28T11:04:02;8.70;;;5.18;;
74959;SDS011;63518;49.572;1.106;2023-04-28T11:06:43;8.75;;;4.70;;
74959;SDS011;63518;49.572;1.106;2023-04-28T11:12:05;7.38;;;3.92;;
74959;SDS011;63518;49.572;1.106;2023-04-28T11:14:45;7.15;;;3.92;;
74959;SDS011;63518;49.572;1.106;2023-04-28T11:17:42;7.00;;;3.53;;
74959;SDS011;63518;49.572;1.106;2023-04-28T11:20:11;7.00;;;3.50;;
74959;SDS011;63518;49.572;1.106;2023-04-28T11:22:53;8.02;;;4.57;;
74959;SDS011;63518;49.572;1.106;2023-04-28T11:28:37;6.40;;;2.92;;
74959;SDS011;63518;49.572;1.106;2023-04-28T11:31:34;6.75;;;2.58;;
74959;SDS011;63518;49.572;1.106;2023-04-28T11:34:04;6.20;;;3.40;;
74959;SDS011;63518;49.572;1.106;2023-04-28T11:36:34;4.95;;;2.30;;
74959;SDS011;63518;49.572;1.106;2023-04-28T11:39:02;6.20;;;2.50;;
74959;SDS011;63518;49.572;1.106;2023-04-28T11:41:35;5.50;;;2.42;;
74959;SDS011;63518;49.572;1.106;2023-04-28T11:46:49;4.88;;;2.22;;
74959;SDS011;63518;49.572;1.106;2023-04-28T11:49:29;5.90;;;2.45;;
74959;SDS011;63518;49.572;1.106;2023-04-28T11:52:15;4.82;;;1.98;;
74959;SDS011;63518;49.572;1.106;2023-04-28T11:54:42;4.95;;;2.28;;
74959;SDS011;63518;49.572;1.106;2023-04-28T11:57:16;5.25;;;1.90;;
74959;SDS011;63518;49.572;1.106;2023-04-28T11:59:44;4.50;;;1.90;;
74959;SDS011;63518;49.572;1.106;2023-04-28T12:02:15;6.03;;;2.53;;
74959;SDS011;63518;49.572;1.106;2023-04-28T12:04:43;6.03;;;2.00;;
74959;SDS011;63518;49.572;1.106;2023-04-28T12:07:13;5.63;;;2.40;;
74959;SDS011;63518;49.572;1.106;2023-04-28T12:09:42;5.40;;;2.35;;
74959;SDS011;63518;49.572;1.106;2023-04-28T12:12:12;5.40;;;2.58;;
74959;SDS011;63518;49.572;1.106;2023-04-28T12:14:55;5.30;;;2.10;;
74959;SDS011;63518;49.572;1.106;2023-04-28T12:17:29;4.90;;;2.23;;
74959;SDS011;63518;49.572;1.106;2023-04-28T12:20:02;4.70;;;1.93;;
74959;SDS011;63518;49.572;1.106;2023-04-28T12:25:19;4.47;;;2.08;;
74959;SDS011;63518;49.572;1.106;2023-04-28T12:27:59;5.00;;;1.92;;
74959;SDS011;63518;49.572;1.106;2023-04-28T12:30:36;4.80;;;1.70;;
74959;SDS011;63518;49.572;1.106;2023-04-28T12:33:25;4.93;;;1.83;;
74959;SDS011;63518;49.572;1.106;2023-04-28T12:36:05;4.28;;;1.60;;
74959;SDS011;63518;49.572;1.106;2023-04-28T12:38:46;4.13;;;1.42;;
74959;SDS011;63518;49.572;1.106;2023-04-28T12:41:16;5.47;;;1.60;;
74959;SDS011;63518;49.572;1.106;2023-04-28T12:43:51;3.90;;;1.33;;
74959;SDS011;63518;49.572;1.106;2023-04-28T12:46:20;4.35;;;1.58;;
74959;SDS011;63518;49.572;1.106;2023-04-28T12:48:50;3.67;;;1.50;;
74959;SDS011;63518;49.572;1.106;2023-04-28T12:51:25;4.35;;;1.50;;
74959;SDS011;63518;49.572;1.106;2023-04-28T12:54:04;4.05;;;1.45;;
74959;SDS011;63518;49.572;1.106;2023-04-28T12:56:35;4.65;;;1.73;;
74959;SDS011;63518;49.572;1.106;2023-04-28T12:59:18;3.92;;;1.52;;
74959;SDS011;63518;49.572;1.106;2023-04-28T13:01:49;4.20;;;1.50;;
74959;SDS011;63518;49.572;1.106;2023-04-28T13:04:17;4.27;;;1.57;;
74959;SDS011;63518;49.572;1.106;2023-04-28T13:06:53;4.32;;;1.80;;
74959;SDS011;63518;49.572;1.106;2023-04-28T13:09:21;4.40;;;1.67;;
74959;SDS011;63518;49.572;1.106;2023-04-28T13:11:49;4.32;;;1.70;;
74959;SDS011;63518;49.572;1.106;2023-04-28T13:14:23;4.90;;;1.63;;
74959;SDS011;63518;49.572;1.106;2023-04-28T13:16:51;4.30;;;1.70;;
74959;SDS011;63518;49.572;1.106;2023-04-28T13:19:19;4.13;;;1.73;;
74959;SDS011;63518;49.572;1.106;2023-04-28T13:21:47;4.30;;;1.88;;
74959;SDS011;63518;49.572;1.106;2023-04-28T13:24:20;3.60;;;1.40;;
74959;SDS011;63518;49.572;1.106;2023-04-28T13:26:50;5.13;;;2.35;;
74959;SDS011;63518;49.572;1.106;2023-04-28T13:29:21;5.07;;;2.05;;
74959;SDS011;63518;49.572;1.106;2023-04-28T13:31:52;4.22;;;1.58;;
74959;SDS011;63518;49.572;1.106;2023-04-28T13:34:20;5.60;;;2.40;;
74959;SDS011;63518;49.572;1.106;2023-04-28T13:36:55;4.77;;;2.17;;
74959;SDS011;63518;49.572;1.106;2023-04-28T13:39:23;4.25;;;2.05;;
74959;SDS011;63518;49.572;1.106;2023-04-28T13:41:52;4.30;;;1.67;;
74959;SDS011;63518;49.572;1.106;2023-04-28T13:44:19;4.60;;;2.15;;
74959;SDS011;63518;49.572;1.106;2023-04-28T13:46:49;4.77;;;2.27;;
74959;SDS011;63518;49.572;1.106;2023-04-28T13:49:19;5.67;;;2.77;;
74959;SDS011;63518;49.572;1.106;2023-04-28T13:51:52;5.80;;;2.72;;
74959;SDS011;63518;49.572;1.106;2023-04-28T13:54:24;6.03;;;2.80;;
74959;SDS011;63518;49.572;1.106;2023-04-28T13:56:51;5.53;;;2.67;;
74959;SDS011;63518;49.572;1.106;2023-04-28T13:59:21;5.80;;;2.83;;
74959;SDS011;63518;49.572;1.106;2023-04-28T14:01:48;5.65;;;2.58;;
74959;SDS011;63518;49.572;1.106;2023-04-28T14:04:18;6.73;;;2.97;;
74959;SDS011;63518;49.572;1.106;2023-04-28T14:06:46;6.72;;;3.17;;
74959;SDS011;63518;49.572;1.106;2023-04-28T14:09:13;5.43;;;2.55;;
74959;SDS011;63518;49.572;1.106;2023-04-28T14:11:47;6.70;;;2.90;;
74959;SDS011;63518;49.572;1.106;2023-04-28T14:14:14;6.00;;;2.40;;
74959;SDS011;63518;49.572;1.106;2023-04-28T14:16:46;5.07;;;2.20;;
74959;SDS011;63518;49.572;1.106;2023-04-28T14:19:27;4.93;;;2.05;;
74959;SDS011;63518;49.572;1.106;2023-04-28T14:21:54;6.20;;;2.55;;
74959;SDS011;63518;49.572;1.106;2023-04-28T14:24:25;5.93;;;2.72;;
74959;SDS011;63518;49.572;1.106;2023-04-28T14:26:52;5.78;;;2.50;;
74959;SDS011;63518;49.572;1.106;2023-04-28T14:29:19;5.43;;;2.30;;
74959;SDS011;63518;49.572;1.106;2023-04-28T14:31:46;6.07;;;2.47;;
74959;SDS011;63518;49.572;1.106;2023-04-28T14:34:13;6.18;;;2.58;;
74959;SDS011;63518;49.572;1.106;2023-04-28T14:36:40;5.63;;;2.10;;
74959;SDS011;63518;49.572;1.106;2023-04-28T14:39:10;6.47;;;2.70;;
74959;SDS011;63518;49.572;1.106;2023-04-28T14:41:40;6.10;;;2.53;;
74959;SDS011;63518;49.572;1.106;2023-04-28T14:44:10;7.10;;;2.72;;
74959;SDS011;63518;49.572;1.106;2023-04-28T14:46:37;7.15;;;2.60;;
74959;SDS011;63518;49.572;1.106;2023-04-28T14:49:04;5.60;;;2.05;;
74959;SDS011;63518;49.572;1.106;2023-04-28T14:51:31;6.50;;;2.47;;
74959;SDS011;63518;49.572;1.106;2023-04-28T14:53:58;6.07;;;2.37;;
74959;SDS011;63518;49.572;1.106;2023-04-28T14:56:25;6.07;;;2.78;;
74959;SDS011;63518;49.572;1.106;2023-04-28T14:58:52;7.75;;;3.60;;
74959;SDS011;63518;49.572;1.106;2023-04-28T15:01:19;8.75;;;3.15;;
74959;SDS011;63518;49.572;1.106;2023-04-28T15:03:46;9.48;;;4.20;;
74959;SDS011;63518;49.572;1.106;2023-04-28T15:06:13;7.80;;;3.80;;
74959;SDS011;63518;49.572;1.106;2023-04-28T15:08:40;7.85;;;3.80;;
74959;SDS011;63518;49.572;1.106;2023-04-28T15:11:07;7.53;;;3.03;;
74959;SDS011;63518;49.572;1.106;2023-04-28T15:13:34;7.85;;;3.28;;
74959;SDS011;63518;49.572;1.106;2023-04-28T15:16:01;7.73;;;3.10;;
74959;SDS011;63518;49.572;1.106;2023-04-28T15:18:28;7.30;;;2.97;;
74959;SDS011;63518;49.572;1.106;2023-04-28T15:20:55;8.00;;;3.10;;
74959;SDS011;63518;49.572;1.106;2023-04-28T15:28:18;6.18;;;2.17;;
74959;SDS011;63518;49.572;1.106;2023-04-28T15:30:45;6.15;;;1.92;;
74959;SDS011;63518;49.572;1.106;2023-04-28T15:40:39;5.05;;;1.80;;
74959;SDS011;63518;49.572;1.106;2023-04-28T15:43:07;4.80;;;1.63;;
74959;SDS011;63518;49.572;1.106;2023-04-28T15:45:34;4.90;;;1.73;;
74959;SDS011;63518;49.572;1.106;2023-04-28T15:48:01;5.18;;;1.65;;
74959;SDS011;63518;49.572;1.106;2023-04-28T15:50:30;7.25;;;1.60;;
74959;SDS011;63518;49.572;1.106;2023-04-28T15:52:57;5.20;;;1.70;;
74959;SDS011;63518;49.572;1.106;2023-04-28T15:55:24;4.60;;;1.63;;
74959;SDS011;63518;49.572;1.106;2023-04-28T15:57:51;4.75;;;1.63;;